createdAt,value
2022-08-22T00:02:43.870Z,85.87
2022-08-22T04:03:04.013Z,87.42
2022-08-22T05:10:34.504Z,86.95
2022-08-22T05:14:39.549Z,86.92
2022-08-22T06:04:02.419Z,87.23
2022-08-22T06:08:23.431Z,86.83
2022-08-22T06:12:22.902Z,87.04
2022-08-22T06:16:47.561Z,87.17
2022-08-22T06:20:47.237Z,86.75
2022-08-22T06:24:40.763Z,87.24
2022-08-22T06:28:38.059Z,88.20
2022-08-22T06:32:58.881Z,88.05
2022-08-22T06:36:55.513Z,87.81
2022-08-22T06:40:53.227Z,87.52
2022-08-22T06:44:51.361Z,87.22
2022-08-22T06:48:44.858Z,87.16
2022-08-22T06:52:50.199Z,87.10
2022-08-22T06:56:46.024Z,87.93
2022-08-22T07:00:41.808Z,87.35
2022-08-22T07:04:34.691Z,86.75
2022-08-22T07:08:31.970Z,86.68
2022-08-22T07:12:32.154Z,86.60
2022-08-22T07:16:35.775Z,86.73
2022-08-22T07:20:33.874Z,86.39
2022-08-22T07:24:31.770Z,85.67
2022-08-22T07:28:58.578Z,86.43
2022-08-22T07:33:26.244Z,87.15
2022-08-22T07:37:23.818Z,86.86
2022-08-22T07:41:24.356Z,86.65
2022-08-22T07:45:32.030Z,86.66
2022-08-22T07:49:59.037Z,87.06
2022-08-22T07:54:00.894Z,85.82
2022-08-22T07:57:58.202Z,86.21
2022-08-22T08:01:57.051Z,86.83
2022-08-22T08:05:50.425Z,86.52
2022-08-22T08:09:48.208Z,85.30
2022-08-22T08:13:47.195Z,85.45
2022-08-22T08:17:40.609Z,83.51
2022-08-22T08:21:53.549Z,83.64
2022-08-22T08:25:58.447Z,83.63
2022-08-22T08:30:02.320Z,84.76
2022-08-22T08:34:07.068Z,81.23
2022-08-22T08:38:20.937Z,82.61
2022-08-22T08:42:33.345Z,82.79
2022-08-22T08:46:55.702Z,83.51
2022-08-22T08:50:54.507Z,81.60
2022-08-22T08:54:58.303Z,80.95
2022-08-22T08:58:58.891Z,82.15
2022-08-22T09:03:21.157Z,81.69
2022-08-22T09:07:58.543Z,81.82
2022-08-22T09:12:06.042Z,82.35
2022-08-22T09:16:36.753Z,80.05
2022-08-22T09:21:01.568Z,80.69
2022-08-22T09:25:38.625Z,78.73
2022-08-22T09:29:54.447Z,79.55
2022-08-22T09:33:56.993Z,80.97
2022-08-22T09:38:09.726Z,78.93
2022-08-22T09:42:08.684Z,79.77
2022-08-22T09:46:31.630Z,79.92
2022-08-22T09:51:28.303Z,80.81
2022-08-22T09:55:45.097Z,78.99
2022-08-22T09:59:59.935Z,77.11
2022-08-22T10:04:32.224Z,79.11
2022-08-22T10:08:46.627Z,79.51
2022-08-22T10:12:51.402Z,80.14
2022-08-22T10:16:57.275Z,81.33
2022-08-22T10:21:08.755Z,80.78
2022-08-22T10:25:32.102Z,81.38
2022-08-22T10:29:46.167Z,81.32
2022-08-22T10:33:46.622Z,80.80
2022-08-22T10:38:01.102Z,80.18
2022-08-22T10:42:07.683Z,78.95
2022-08-22T10:46:06.897Z,78.90
2022-08-22T10:50:20.085Z,78.36
2022-08-22T10:54:21.597Z,78.15
2022-08-22T10:58:24.517Z,79.20
2022-08-22T11:02:35.794Z,79.01
2022-08-22T11:07:09.287Z,78.94
2022-08-22T11:11:32.894Z,78.65
2022-08-22T11:15:58.482Z,78.64
2022-08-22T11:20:29.322Z,78.39
2022-08-22T11:24:34.737Z,76.87
2022-08-22T11:29:02.839Z,75.45
2022-08-22T11:33:47.325Z,76.17
2022-08-22T11:37:51.354Z,76.32
2022-08-22T11:41:58.656Z,75.39
2022-08-22T11:45:57.424Z,75.15
2022-08-22T11:49:59.723Z,75.52
2022-08-22T11:54:15.519Z,75.68
2022-08-22T11:58:28.848Z,74.05
2022-08-22T12:02:36.055Z,72.89
2022-08-22T12:06:54.509Z,74.14
2022-08-22T12:11:25.785Z,74.85
2022-08-22T12:15:21.388Z,74.80
2022-08-22T12:19:48.921Z,74.57
2022-08-22T13:04:11.734Z,78.14
2022-08-22T13:08:22.858Z,78.89
2022-08-22T13:12:22.921Z,76.64
2022-08-22T13:16:18.266Z,76.64
2022-08-22T13:20:21.765Z,76.93
2022-08-22T13:24:22.708Z,76.33
2022-08-22T13:28:35.741Z,77.79
2022-08-22T13:32:44.401Z,77.86
2022-08-22T13:36:51.895Z,77.79
2022-08-22T13:40:47.542Z,78.17
2022-08-22T13:44:44.225Z,80.10
2022-08-22T13:48:50.638Z,79.45
2022-08-22T13:52:55.182Z,80.84
2022-08-22T13:57:02.180Z,81.46
2022-08-22T14:01:11.753Z,82.61
2022-08-22T14:05:17.844Z,83.42
2022-08-22T14:09:29.585Z,84.21
2022-08-22T14:13:36.677Z,84.83
2022-08-22T14:17:50.885Z,84.66
2022-08-22T14:21:59.604Z,85.09
2022-08-22T14:25:52.620Z,84.59
2022-08-22T14:34:15.812Z,85.33
2022-08-22T14:38:20.663Z,85.14
2022-08-22T14:42:44.356Z,84.76
2022-08-22T14:46:47.752Z,84.72
2022-08-22T14:50:55.700Z,84.46
2022-08-22T14:54:48.161Z,84.95
2022-08-22T14:59:06.170Z,85.00
2022-08-22T15:03:14.707Z,86.13
2022-08-22T15:16:03.523Z,86.88
2022-08-22T15:20:11.151Z,86.41
2022-08-22T15:24:09.779Z,86.69
2022-08-22T15:28:14.196Z,86.96
2022-08-22T15:32:09.818Z,86.50
2022-08-22T15:36:26.497Z,86.16
2022-08-22T15:40:41.349Z,85.80
2022-08-22T15:44:38.125Z,86.02
2022-08-22T15:48:36.801Z,86.02
2022-08-22T15:52:33.233Z,85.85
2022-08-22T15:56:35.394Z,86.40
2022-08-22T16:00:33.259Z,86.57
2022-08-22T16:05:03.962Z,86.74
2022-08-22T16:08:56.587Z,86.94
2022-08-22T16:13:26.208Z,86.86
2022-08-22T16:17:30.916Z,87.65
2022-08-22T16:21:23.875Z,87.99
2022-08-22T16:25:16.313Z,88.16
2022-08-22T16:29:15.032Z,87.95
2022-08-22T16:33:27.451Z,88.15
2022-08-22T16:37:25.653Z,87.61
2022-08-22T16:41:44.651Z,87.62
2022-08-22T16:45:40.657Z,87.34
2022-08-22T16:49:37.679Z,86.52
2022-08-22T16:53:30.030Z,86.95
2022-08-22T16:57:24.966Z,86.66
2022-08-22T17:01:36.443Z,87.10
2022-08-22T17:05:48.440Z,86.90
2022-08-22T17:10:02.080Z,87.18
2022-08-22T17:14:09.056Z,86.73
2022-08-22T17:18:31.058Z,86.42
2022-08-22T17:22:39.180Z,87.56
2022-08-22T17:26:44.296Z,86.90
2022-08-22T17:31:01.605Z,86.77
2022-08-22T17:35:03.182Z,86.87
2022-08-22T17:39:03.188Z,86.91
2022-08-22T17:43:33.459Z,86.82
2022-08-22T17:47:53.890Z,87.19
2022-08-22T17:52:07.523Z,86.23
2022-08-22T17:56:24.994Z,86.48
2022-08-22T18:00:24.285Z,87.23
2022-08-22T18:04:34.990Z,87.55
2022-08-22T18:13:07.754Z,87.74
2022-08-22T18:17:01.186Z,87.41
2022-08-22T18:21:01.440Z,87.44
2022-08-22T18:25:01.461Z,87.32
2022-08-22T18:29:10.620Z,87.58
2022-08-22T18:33:19.984Z,87.11
2022-08-22T18:37:40.034Z,86.43
2022-08-22T18:41:47.126Z,86.70
2022-08-22T18:45:48.929Z,86.44
2022-08-22T18:49:45.980Z,87.14
2022-08-22T18:53:39.993Z,87.49
2022-08-22T18:58:10.166Z,87.10
2022-08-22T19:02:35.215Z,87.08
2022-08-22T19:06:55.544Z,87.49
2022-08-22T19:11:03.582Z,87.50
2022-08-22T19:14:56.301Z,87.13
2022-08-22T19:19:17.416Z,87.18
2022-08-22T19:23:32.193Z,86.98
2022-08-22T19:27:31.209Z,86.91
2022-08-22T19:31:37.648Z,86.72
2022-08-22T19:35:44.736Z,87.01
2022-08-22T19:39:40.186Z,87.37
2022-08-22T19:43:37.549Z,87.09
2022-08-22T19:47:37.383Z,86.94
2022-08-22T19:51:30.643Z,87.47
2022-08-22T19:55:38.600Z,87.03
2022-08-22T19:59:50.733Z,86.95
2022-08-22T20:03:53.672Z,86.45
2022-08-22T20:07:56.823Z,86.54
2022-08-22T23:32:57.290Z,87.86
